sensor_id;sensor_type;location;lat;lon;timestamp;pressure;altitude;pressure_sealevel;temperature;humidity
35694;BME280;21812;55.536;37.664;2023-07-31T00:01:27;99007.59;;;17.03;70.09
35694;BME280;21812;55.536;37.664;2023-07-31T00:03:53;99003.34;;;17.07;69.55
35694;BME280;21812;55.536;37.664;2023-07-31T00:06:18;99004.72;;;17.32;71.75
35694;BME280;21812;55.536;37.664;2023-07-31T00:08:44;99005.84;;;17.58;71.76
35694;BME280;21812;55.536;37.664;2023-07-31T00:11:10;98999.22;;;17.71;70.99
35694;BME280;21812;55.536;37.664;2023-07-31T00:13:35;98997.66;;;17.75;68.97
35694;BME280;21812;55.536;37.664;2023-07-31T00:16:01;98997.09;;;17.73;67.30
35694;BME280;21812;55.536;37.664;2023-07-31T00:18:27;99008.69;;;17.46;66.90
35694;BME280;21812;55.536;37.664;2023-07-31T00:20:53;99005.47;;;17.49;71.23
35694;BME280;21812;55.536;37.664;2023-07-31T00:23:18;99006.66;;;17.58;70.07
35694;BME280;21812;55.536;37.664;2023-07-31T00:25:44;98999.72;;;17.68;69.67
35694;BME280;21812;55.536;37.664;2023-07-31T00:28:10;99009.41;;;17.64;67.16
35694;BME280;21812;55.536;37.664;2023-07-31T00:30:35;99011.34;;;17.68;67.80
35694;BME280;21812;55.536;37.664;2023-07-31T00:33:01;99009.25;;;17.75;69.04
35694;BME280;21812;55.536;37.664;2023-07-31T00:35:27;99015.13;;;17.67;67.17
35694;BME280;21812;55.536;37.664;2023-07-31T00:37:53;99008.38;;;17.70;70.07
35694;BME280;21812;55.536;37.664;2023-07-31T00:40:18;99000.91;;;17.77;70.76
35694;BME280;21812;55.536;37.664;2023-07-31T00:42:45;98999.88;;;17.83;70.05
35694;BME280;21812;55.536;37.664;2023-07-31T00:45:11;99013.53;;;17.93;69.26
35694;BME280;21812;55.536;37.664;2023-07-31T00:47:37;99008.72;;;18.01;69.79
35694;BME280;21812;55.536;37.664;2023-07-31T00:50:03;99003.53;;;17.94;67.32
35694;BME280;21812;55.536;37.664;2023-07-31T00:52:30;99009.56;;;18.01;68.90
35694;BME280;21812;55.536;37.664;2023-07-31T00:54:56;99000.88;;;17.99;69.40
35694;BME280;21812;55.536;37.664;2023-07-31T00:57:22;98999.97;;;17.88;66.79
35694;BME280;21812;55.536;37.664;2023-07-31T00:59:47;99000.78;;;17.89;67.06
35694;BME280;21812;55.536;37.664;2023-07-31T01:02:14;98995.63;;;17.87;67.51
35694;BME280;21812;55.536;37.664;2023-07-31T01:04:42;98999.97;;;17.88;69.63
35694;BME280;21812;55.536;37.664;2023-07-31T01:07:14;98994.03;;;17.91;69.87
35694;BME280;21812;55.536;37.664;2023-07-31T01:09:49;98971.69;;;17.74;69.10
35694;BME280;21812;55.536;37.664;2023-07-31T01:12:19;98993.00;;;17.70;66.95
35694;BME280;21812;55.536;37.664;2023-07-31T01:15:08;98995.47;;;17.99;68.71
35694;BME280;21812;55.536;37.664;2023-07-31T01:17:41;98997.72;;;18.07;69.82
35694;BME280;21812;55.536;37.664;2023-07-31T01:20:26;99003.50;;;18.21;69.18
35694;BME280;21812;55.536;37.664;2023-07-31T01:28:50;98998.41;;;18.25;68.14
35694;BME280;21812;55.536;37.664;2023-07-31T01:31:25;98995.19;;;17.95;66.69
35694;BME280;21812;55.536;37.664;2023-07-31T01:33:56;99002.91;;;17.87;67.78
35694;BME280;21812;55.536;37.664;2023-07-31T01:36:23;98989.09;;;17.56;65.58
35694;BME280;21812;55.536;37.664;2023-07-31T01:38:49;98996.47;;;17.66;68.32
35694;BME280;21812;55.536;37.664;2023-07-31T01:41:18;98994.16;;;17.74;68.53
35694;BME280;21812;55.536;37.664;2023-07-31T01:43:45;98997.09;;;17.73;69.42
35694;BME280;21812;55.536;37.664;2023-07-31T01:46:11;98984.56;;;17.62;67.63
35694;BME280;21812;55.536;37.664;2023-07-31T01:48:37;98992.13;;;17.65;68.38
35694;BME280;21812;55.536;37.664;2023-07-31T01:51:03;98995.84;;;17.58;68.35
35694;BME280;21812;55.536;37.664;2023-07-31T01:53:30;98984.94;;;17.48;68.00
35694;BME280;21812;55.536;37.664;2023-07-31T01:55:56;98991.66;;;17.46;67.51
35694;BME280;21812;55.536;37.664;2023-07-31T01:58:22;98993.19;;;17.14;65.72
35694;BME280;21812;55.536;37.664;2023-07-31T02:00:48;98991.69;;;17.24;68.51
35694;BME280;21812;55.536;37.664;2023-07-31T02:03:14;98982.56;;;17.30;69.34
35694;BME280;21812;55.536;37.664;2023-07-31T02:05:47;98999.97;;;17.39;68.52
35694;BME280;21812;55.536;37.664;2023-07-31T02:08:13;99001.84;;;17.38;67.89
35694;BME280;21812;55.536;37.664;2023-07-31T02:10:39;98997.56;;;17.43;69.00
35694;BME280;21812;55.536;37.664;2023-07-31T02:13:05;98993.22;;;17.42;69.56
35694;BME280;21812;55.536;37.664;2023-07-31T02:15:32;98999.63;;;17.57;70.24
35694;BME280;21812;55.536;37.664;2023-07-31T02:17:59;98994.94;;;17.48;67.63
35694;BME280;21812;55.536;37.664;2023-07-31T02:20:25;98997.63;;;17.48;68.47
35694;BME280;21812;55.536;37.664;2023-07-31T02:22:51;98995.19;;;17.46;68.54
35694;BME280;21812;55.536;37.664;2023-07-31T02:25:17;98992.97;;;17.43;67.84
35694;BME280;21812;55.536;37.664;2023-07-31T02:27:46;98996.38;;;17.55;69.55
35694;BME280;21812;55.536;37.664;2023-07-31T02:30:14;98996.38;;;17.55;69.58
35694;BME280;21812;55.536;37.664;2023-07-31T02:32:40;99003.31;;;17.51;69.05
35694;BME280;21812;55.536;37.664;2023-07-31T02:35:06;99009.34;;;17.58;68.51
35694;BME280;21812;55.536;37.664;2023-07-31T02:37:34;99013.28;;;17.73;69.29
35694;BME280;21812;55.536;37.664;2023-07-31T02:39:59;99007.88;;;17.73;68.33
35694;BME280;21812;55.536;37.664;2023-07-31T02:42:31;99011.47;;;17.78;67.99
35694;BME280;21812;55.536;37.664;2023-07-31T02:44:58;99002.59;;;17.83;68.25
35694;BME280;21812;55.536;37.664;2023-07-31T02:47:23;99006.19;;;17.89;70.10
35694;BME280;21812;55.536;37.664;2023-07-31T02:49:50;99007.03;;;17.94;69.78
35694;BME280;21812;55.536;37.664;2023-07-31T02:52:17;99006.84;;;18.01;69.16
35694;BME280;21812;55.536;37.664;2023-07-31T02:54:43;99006.00;;;17.95;68.06
35694;BME280;21812;55.536;37.664;2023-07-31T02:57:09;99009.56;;;18.06;69.48
35694;BME280;21812;55.536;37.664;2023-07-31T02:59:35;99000.16;;;18.09;68.22
35694;BME280;21812;55.536;37.664;2023-07-31T03:02:01;99005.66;;;18.19;69.57
35694;BME280;21812;55.536;37.664;2023-07-31T03:04:27;99004.53;;;18.15;68.98
35694;BME280;21812;55.536;37.664;2023-07-31T03:06:52;99002.88;;;18.09;68.00
35694;BME280;21812;55.536;37.664;2023-07-31T03:09:19;98996.75;;;18.24;69.21
35694;BME280;21812;55.536;37.664;2023-07-31T03:11:45;98995.47;;;18.31;68.50
35694;BME280;21812;55.536;37.664;2023-07-31T03:14:11;98990.69;;;18.44;68.89
35694;BME280;21812;55.536;37.664;2023-07-31T03:16:37;98999.13;;;18.47;68.10
35694;BME280;21812;55.536;37.664;2023-07-31T03:19:03;98990.16;;;18.42;67.87
35694;BME280;21812;55.536;37.664;2023-07-31T03:21:29;98986.94;;;18.50;68.54
35694;BME280;21812;55.536;37.664;2023-07-31T03:23:56;98992.47;;;18.65;68.34
35694;BME280;21812;55.536;37.664;2023-07-31T03:26:22;98990.88;;;18.69;67.62
35694;BME280;21812;55.536;37.664;2023-07-31T03:28:48;98987.72;;;18.83;67.48
35694;BME280;21812;55.536;37.664;2023-07-31T03:31:15;98985.16;;;18.61;64.86
35694;BME280;21812;55.536;37.664;2023-07-31T03:33:40;98993.81;;;18.63;67.62
35694;BME280;21812;55.536;37.664;2023-07-31T03:36:06;98999.50;;;18.66;68.31
35694;BME280;21812;55.536;37.664;2023-07-31T03:38:34;98990.66;;;18.76;68.78
35694;BME280;21812;55.536;37.664;2023-07-31T03:41:00;98989.41;;;18.94;68.90
35694;BME280;21812;55.536;37.664;2023-07-31T03:43:28;98984.88;;;19.05;68.53
35694;BME280;21812;55.536;37.664;2023-07-31T03:45:54;98986.53;;;19.16;68.43
35694;BME280;21812;55.536;37.664;2023-07-31T03:48:19;98984.69;;;19.22;68.33
35694;BME280;21812;55.536;37.664;2023-07-31T03:50:45;98995.50;;;19.22;67.48
35694;BME280;21812;55.536;37.664;2023-07-31T03:53:11;98987.66;;;19.25;67.07
35694;BME280;21812;55.536;37.664;2023-07-31T03:55:37;98997.13;;;19.23;66.13
35694;BME280;21812;55.536;37.664;2023-07-31T03:58:03;98995.47;;;19.11;68.04
35694;BME280;21812;55.536;37.664;2023-07-31T04:00:29;98993.75;;;18.95;68.09
35694;BME280;21812;55.536;37.664;2023-07-31T04:02:54;98991.09;;;19.05;67.31
35694;BME280;21812;55.536;37.664;2023-07-31T04:05:20;99000.84;;;19.06;67.18
35694;BME280;21812;55.536;37.664;2023-07-31T04:07:46;98997.41;;;19.21;68.33
35694;BME280;21812;55.536;37.664;2023-07-31T04:10:11;99002.81;;;19.26;68.88
35694;BME280;21812;55.536;37.664;2023-07-31T04:12:37;99000.91;;;19.22;67.58
35694;BME280;21812;55.536;37.664;2023-07-31T04:15:03;98998.50;;;19.30;67.39
35694;BME280;21812;55.536;37.664;2023-07-31T04:17:32;99005.28;;;19.33;67.21
35694;BME280;21812;55.536;37.664;2023-07-31T04:19:58;99006.94;;;19.39;66.28
35694;BME280;21812;55.536;37.664;2023-07-31T04:22:24;99006.97;;;19.44;67.41
35694;BME280;21812;55.536;37.664;2023-07-31T04:24:49;99004.25;;;19.49;66.63
35694;BME280;21812;55.536;37.664;2023-07-31T04:27:15;99004.00;;;19.51;67.24
35694;BME280;21812;55.536;37.664;2023-07-31T04:29:41;98996.69;;;19.57;67.62
35694;BME280;21812;55.536;37.664;2023-07-31T04:32:08;99002.63;;;19.48;64.93
35694;BME280;21812;55.536;37.664;2023-07-31T04:34:34;98999.34;;;19.31;63.28
35694;BME280;21812;55.536;37.664;2023-07-31T04:37:00;99004.72;;;19.26;65.25
35694;BME280;21812;55.536;37.664;2023-07-31T04:39:26;99006.56;;;19.15;64.21
35694;BME280;21812;55.536;37.664;2023-07-31T04:41:52;99008.72;;;19.13;64.59
35694;BME280;21812;55.536;37.664;2023-07-31T04:44:18;99012.47;;;19.07;64.66
35694;BME280;21812;55.536;37.664;2023-07-31T04:46:44;99017.31;;;19.00;64.35
35694;BME280;21812;55.536;37.664;2023-07-31T04:49:11;99020.31;;;19.03;67.58
35694;BME280;21812;55.536;37.664;2023-07-31T04:51:37;99008.66;;;19.03;67.89
35694;BME280;21812;55.536;37.664;2023-07-31T04:54:03;99010.88;;;19.06;65.78
35694;BME280;21812;55.536;37.664;2023-07-31T04:56:29;99009.47;;;19.03;63.00
35694;BME280;21812;55.536;37.664;2023-07-31T04:58:54;99015.16;;;19.02;63.79
35694;BME280;21812;55.536;37.664;2023-07-31T05:01:20;99023.03;;;19.08;63.67
35694;BME280;21812;55.536;37.664;2023-07-31T05:03:46;99020.88;;;19.10;63.67
35694;BME280;21812;55.536;37.664;2023-07-31T05:06:12;99019.81;;;19.17;65.93
35694;BME280;21812;55.536;37.664;2023-07-31T05:08:39;99010.91;;;19.16;63.18
35694;BME280;21812;55.536;37.664;2023-07-31T05:11:05;99011.16;;;19.14;64.68
35694;BME280;21812;55.536;37.664;2023-07-31T05:13:30;99011.75;;;19.22;63.81
35694;BME280;21812;55.536;37.664;2023-07-31T05:15:56;99012.81;;;19.21;63.67
35694;BME280;21812;55.536;37.664;2023-07-31T05:18:21;99010.38;;;19.19;64.10
35694;BME280;21812;55.536;37.664;2023-07-31T05:20:47;99015.50;;;19.21;64.42
35694;BME280;21812;55.536;37.664;2023-07-31T05:23:13;99015.50;;;19.21;64.66
35694;BME280;21812;55.536;37.664;2023-07-31T05:25:39;99011.75;;;19.22;63.72
35694;BME280;21812;55.536;37.664;2023-07-31T05:28:04;99023.13;;;19.24;63.56
35694;BME280;21812;55.536;37.664;2023-07-31T05:30:30;99022.59;;;19.32;64.43
35694;BME280;21812;55.536;37.664;2023-07-31T05:32:57;99015.66;;;19.51;70.21
35694;BME280;21812;55.536;37.664;2023-07-31T05:35:22;99015.38;;;19.53;65.13
35694;BME280;21812;55.536;37.664;2023-07-31T05:37:48;99013.50;;;19.53;63.29
35694;BME280;21812;55.536;37.664;2023-07-31T05:40:14;99019.72;;;19.54;63.99
35694;BME280;21812;55.536;37.664;2023-07-31T05:42:40;99015.91;;;19.55;62.95
35694;BME280;21812;55.536;37.664;2023-07-31T05:45:06;99025.16;;;19.64;66.90
35694;BME280;21812;55.536;37.664;2023-07-31T05:47:32;99017.03;;;19.64;62.06
35694;BME280;21812;55.536;37.664;2023-07-31T05:49:58;99023.53;;;19.68;62.27
35694;BME280;21812;55.536;37.664;2023-07-31T05:52:24;99021.41;;;19.76;62.56
35694;BME280;21812;55.536;37.664;2023-07-31T05:54:50;99025.22;;;19.80;62.47
35694;BME280;21812;55.536;37.664;2023-07-31T05:57:17;99026.06;;;19.80;62.21
35694;BME280;21812;55.536;37.664;2023-07-31T05:59:43;99022.78;;;19.83;62.57
35694;BME280;21812;55.536;37.664;2023-07-31T06:02:09;99019.00;;;19.89;61.41
35694;BME280;21812;55.536;37.664;2023-07-31T06:04:35;99022.25;;;19.97;62.50
35694;BME280;21812;55.536;37.664;2023-07-31T06:07:00;99016.84;;;19.97;60.87
35694;BME280;21812;55.536;37.664;2023-07-31T06:09:27;99019.00;;;19.95;60.11
35694;BME280;21812;55.536;37.664;2023-07-31T06:11:53;99024.44;;;19.95;59.83
35694;BME280;21812;55.536;37.664;2023-07-31T06:14:19;99023.09;;;20.07;63.87
35694;BME280;21812;55.536;37.664;2023-07-31T06:16:44;99019.03;;;20.05;59.68
35694;BME280;21812;55.536;37.664;2023-07-31T06:19:10;99029.34;;;20.08;59.59
35694;BME280;21812;55.536;37.664;2023-07-31T06:21:36;99031.25;;;20.13;60.52
35694;BME280;21812;55.536;37.664;2023-07-31T06:24:07;99026.09;;;20.11;59.26
35694;BME280;21812;55.536;37.664;2023-07-31T06:26:33;99031.25;;;20.13;59.39
35694;BME280;21812;55.536;37.664;2023-07-31T06:28:59;99026.63;;;20.13;59.05
35694;BME280;21812;55.536;37.664;2023-07-31T06:31:25;99020.13;;;20.19;59.22
35694;BME280;21812;55.536;37.664;2023-07-31T06:33:51;99025.56;;;20.24;58.55
35694;BME280;21812;55.536;37.664;2023-07-31T06:36:18;99021.75;;;20.30;58.71
35694;BME280;21812;55.536;37.664;2023-07-31T06:38:43;99030.44;;;20.33;56.89
35694;BME280;21812;55.536;37.664;2023-07-31T06:41:09;99027.47;;;20.34;57.00
35694;BME280;21812;55.536;37.664;2023-07-31T06:43:36;99027.72;;;20.38;58.53
35694;BME280;21812;55.536;37.664;2023-07-31T06:46:06;99023.94;;;20.49;58.28
35694;BME280;21812;55.536;37.664;2023-07-31T06:48:33;99026.63;;;20.54;57.25
35694;BME280;21812;55.536;37.664;2023-07-31T06:51:03;99032.34;;;20.63;56.88
35694;BME280;21812;55.536;37.664;2023-07-31T06:53:29;99032.09;;;20.64;55.56
35694;BME280;21812;55.536;37.664;2023-07-31T06:55:56;99026.94;;;20.68;55.24
35694;BME280;21812;55.536;37.664;2023-07-31T06:58:21;99027.19;;;20.72;55.97
35694;BME280;21812;55.536;37.664;2023-07-31T07:00:47;99025.28;;;20.77;55.48
35694;BME280;21812;55.536;37.664;2023-07-31T07:03:17;99030.97;;;20.81;55.07
35694;BME280;21812;55.536;37.664;2023-07-31T07:05:43;99029.34;;;20.85;53.92
35694;BME280;21812;55.536;37.664;2023-07-31T07:08:09;99036.38;;;20.86;53.22
35694;BME280;21812;55.536;37.664;2023-07-31T07:10:35;99036.13;;;20.87;52.95
35694;BME280;21812;55.536;37.664;2023-07-31T07:13:00;99032.56;;;20.92;52.99
35694;BME280;21812;55.536;37.664;2023-07-31T07:15:26;99038.53;;;20.99;52.75
35694;BME280;21812;55.536;37.664;2023-07-31T07:17:52;99037.16;;;21.07;52.99
35694;BME280;21812;55.536;37.664;2023-07-31T07:20:17;99028.47;;;21.10;52.25
35694;BME280;21812;55.536;37.664;2023-07-31T07:22:45;99026.00;;;21.08;51.14
35694;BME280;21812;55.536;37.664;2023-07-31T07:25:11;99027.09;;;21.13;52.51
35694;BME280;21812;55.536;37.664;2023-07-31T07:27:37;99033.03;;;21.20;50.78
35694;BME280;21812;55.536;37.664;2023-07-31T07:30:03;99033.03;;;21.20;49.85
35694;BME280;21812;55.536;37.664;2023-07-31T07:32:30;99032.47;;;21.28;52.34
35694;BME280;21812;55.536;37.664;2023-07-31T07:34:55;99039.53;;;21.29;50.02
35694;BME280;21812;55.536;37.664;2023-07-31T07:37:22;99036.25;;;21.32;49.19
35694;BME280;21812;55.536;37.664;2023-07-31T07:39:47;99038.41;;;21.40;49.42
35694;BME280;21812;55.536;37.664;2023-07-31T07:42:13;99036.75;;;21.39;47.21
35694;BME280;21812;55.536;37.664;2023-07-31T07:44:39;99034.56;;;21.41;47.69
35694;BME280;21812;55.536;37.664;2023-07-31T07:47:04;99036.22;;;21.42;47.90
35694;BME280;21812;55.536;37.664;2023-07-31T07:49:34;99043.53;;;21.47;48.48
35694;BME280;21812;55.536;37.664;2023-07-31T07:52:01;99033.47;;;21.53;48.84
35694;BME280;21812;55.536;37.664;2023-07-31T07:54:26;99037.25;;;21.57;48.62
35694;BME280;21812;55.536;37.664;2023-07-31T07:56:52;99036.19;;;21.58;48.26
35694;BME280;21812;55.536;37.664;2023-07-31T07:59:18;99039.94;;;21.62;48.55
35694;BME280;21812;55.536;37.664;2023-07-31T08:01:44;99037.22;;;21.67;48.62
35694;BME280;21812;55.536;37.664;2023-07-31T08:04:09;99031.75;;;21.72;47.98
35694;BME280;21812;55.536;37.664;2023-07-31T08:06:35;99035.28;;;21.73;48.21
35694;BME280;21812;55.536;37.664;2023-07-31T08:09:01;99040.97;;;21.76;46.70
35694;BME280;21812;55.536;37.664;2023-07-31T08:11:32;99044.19;;;21.83;48.51
35694;BME280;21812;55.536;37.664;2023-07-31T08:13:58;99040.91;;;21.86;46.10
35694;BME280;21812;55.536;37.664;2023-07-31T08:16:23;99036.00;;;21.89;46.68
35694;BME280;21812;55.536;37.664;2023-07-31T08:18:49;99032.47;;;21.88;46.46
35694;BME280;21812;55.536;37.664;2023-07-31T08:21:15;99048.47;;;21.95;47.28
35694;BME280;21812;55.536;37.664;2023-07-31T08:23:40;99041.91;;;22.01;45.27
35694;BME280;21812;55.536;37.664;2023-07-31T08:26:06;99046.78;;;22.04;44.34
35694;BME280;21812;55.536;37.664;2023-07-31T08:28:32;99039.72;;;22.03;43.91
35694;BME280;21812;55.536;37.664;2023-07-31T08:30:58;99041.91;;;22.01;44.45
35694;BME280;21812;55.536;37.664;2023-07-31T08:33:23;99040.19;;;22.10;45.73
35694;BME280;21812;55.536;37.664;2023-07-31T08:35:49;99039.09;;;22.16;45.05
35694;BME280;21812;55.536;37.664;2023-07-31T08:38:15;99045.81;;;22.29;45.28
35694;BME280;21812;55.536;37.664;2023-07-31T08:40:40;99044.63;;;22.40;44.53
35694;BME280;21812;55.536;37.664;2023-07-31T08:43:07;99046.53;;;22.40;43.58
35694;BME280;21812;55.536;37.664;2023-07-31T08:45:33;99048.22;;;22.36;43.56
35694;BME280;21812;55.536;37.664;2023-07-31T08:48:00;99049.59;;;22.33;43.75
35694;BME280;21812;55.536;37.664;2023-07-31T08:50:26;99047.63;;;22.39;44.10
35694;BME280;21812;55.536;37.664;2023-07-31T08:52:53;99046.44;;;22.50;43.98
35694;BME280;21812;55.536;37.664;2023-07-31T08:55:19;99045.03;;;22.58;43.01
35694;BME280;21812;55.536;37.664;2023-07-31T08:57:52;99030.56;;;22.62;45.13
35694;BME280;21812;55.536;37.664;2023-07-31T09:00:21;99045.88;;;22.82;42.14
35694;BME280;21812;55.536;37.664;2023-07-31T09:05:18;99060.00;;;22.84;43.10
35694;BME280;21812;55.536;37.664;2023-07-31T09:07:47;99039.16;;;22.75;42.63
35694;BME280;21812;55.536;37.664;2023-07-31T09:10:12;99046.03;;;22.96;43.05
35694;BME280;21812;55.536;37.664;2023-07-31T09:12:39;99053.22;;;23.11;43.93
35694;BME280;21812;55.536;37.664;2023-07-31T09:15:06;99044.69;;;23.23;43.06
35694;BME280;21812;55.536;37.664;2023-07-31T09:17:33;99041.44;;;23.21;43.42
35694;BME280;21812;55.536;37.664;2023-07-31T09:22:42;99051.16;;;23.27;40.97
35694;BME280;21812;55.536;37.664;2023-07-31T09:27:51;99044.91;;;23.27;41.69
35694;BME280;21812;55.536;37.664;2023-07-31T09:30:17;99034.91;;;23.41;41.63
35694;BME280;21812;55.536;37.664;2023-07-31T09:32:45;99030.50;;;23.45;40.02
35694;BME280;21812;55.536;37.664;2023-07-31T09:35:22;99042.13;;;23.75;39.92
35694;BME280;21812;55.536;37.664;2023-07-31T09:37:52;99012.41;;;23.78;40.33
35694;BME280;21812;55.536;37.664;2023-07-31T09:40:30;99041.94;;;24.09;40.06
35694;BME280;21812;55.536;37.664;2023-07-31T09:42:58;99043.41;;;24.20;39.69
35694;BME280;21812;55.536;37.664;2023-07-31T09:45:25;99038.06;;;24.29;39.55
35694;BME280;21812;55.536;37.664;2023-07-31T09:47:51;99035.47;;;24.38;38.82
35694;BME280;21812;55.536;37.664;2023-07-31T09:50:17;99041.94;;;24.42;38.53
35694;BME280;21812;55.536;37.664;2023-07-31T09:52:43;99039.16;;;24.47;38.28
35694;BME280;21812;55.536;37.664;2023-07-31T09:55:10;99040.63;;;24.58;42.92
35694;BME280;21812;55.536;37.664;2023-07-31T09:57:40;99039.94;;;24.67;38.42
35694;BME280;21812;55.536;37.664;2023-07-31T10:00:09;99045.31;;;24.86;38.60
35694;BME280;21812;55.536;37.664;2023-07-31T10:02:39;99046.75;;;24.97;38.65
35694;BME280;21812;55.536;37.664;2023-07-31T10:05:06;99034.44;;;25.13;41.10
35694;BME280;21812;55.536;37.664;2023-07-31T10:07:39;99039.09;;;25.41;38.11
35694;BME280;21812;55.536;37.664;2023-07-31T10:10:08;99036.84;;;25.70;40.25
35694;BME280;21812;55.536;37.664;2023-07-31T10:12:37;99035.50;;;25.82;37.07
35694;BME280;21812;55.536;37.664;2023-07-31T10:15:03;99045.16;;;25.65;36.80
35694;BME280;21812;55.536;37.664;2023-07-31T10:17:33;99048.41;;;25.53;36.98
35694;BME280;21812;55.536;37.664;2023-07-31T10:20:02;99033.84;;;25.30;37.54
35694;BME280;21812;55.536;37.664;2023-07-31T10:22:32;99053.94;;;25.07;38.45
35694;BME280;21812;55.536;37.664;2023-07-31T10:24:59;99057.03;;;24.86;40.85
35694;BME280;21812;55.536;37.664;2023-07-31T10:27:26;99046.19;;;24.67;39.68
35694;BME280;21812;55.536;37.664;2023-07-31T10:29:55;99051.66;;;24.67;50.04
35694;BME280;21812;55.536;37.664;2023-07-31T10:32:22;99058.94;;;24.72;51.99
35694;BME280;21812;55.536;37.664;2023-07-31T10:34:50;99048.91;;;24.67;43.21
35694;BME280;21812;55.536;37.664;2023-07-31T10:37:26;99054.00;;;24.74;47.74
35694;BME280;21812;55.536;37.664;2023-07-31T10:42:46;99051.69;;;24.81;39.97
35694;BME280;21812;55.536;37.664;2023-07-31T10:45:25;99055.44;;;24.85;44.44
35694;BME280;21812;55.536;37.664;2023-07-31T10:48:01;99027.28;;;24.71;42.95
35694;BME280;21812;55.536;37.664;2023-07-31T10:50:29;99057.16;;;24.95;52.37
35694;BME280;21812;55.536;37.664;2023-07-31T10:52:56;99053.94;;;24.93;47.32
35694;BME280;21812;55.536;37.664;2023-07-31T10:57:56;99052.00;;;24.80;41.54
35694;BME280;21812;55.536;37.664;2023-07-31T11:00:29;99057.44;;;24.80;43.61
35694;BME280;21812;55.536;37.664;2023-07-31T11:03:01;99050.75;;;24.72;41.11
35694;BME280;21812;55.536;37.664;2023-07-31T11:05:47;99052.69;;;24.71;41.64
35694;BME280;21812;55.536;37.664;2023-07-31T11:08:15;99055.09;;;24.73;40.54
35694;BME280;21812;55.536;37.664;2023-07-31T11:10:43;99054.00;;;24.74;40.12
35694;BME280;21812;55.536;37.664;2023-07-31T11:13:09;99046.38;;;25.31;38.76
35694;BME280;21812;55.536;37.664;2023-07-31T11:15:35;99042.94;;;26.04;38.01
35694;BME280;21812;55.536;37.664;2023-07-31T11:18:02;99032.06;;;26.58;36.77
35694;BME280;21812;55.536;37.664;2023-07-31T11:20:32;99040.75;;;27.14;36.86
35694;BME280;21812;55.536;37.664;2023-07-31T11:23:02;99016.09;;;27.22;37.66
35694;BME280;21812;55.536;37.664;2023-07-31T11:25:32;99028.00;;;27.58;37.30
35694;BME280;21812;55.536;37.664;2023-07-31T11:28:05;99038.22;;;28.10;35.04
35694;BME280;21812;55.536;37.664;2023-07-31T11:30:31;99036.13;;;28.24;34.46
35694;BME280;21812;55.536;37.664;2023-07-31T11:32:57;99036.78;;;28.30;34.07
35694;BME280;21812;55.536;37.664;2023-07-31T11:35:22;99037.25;;;28.05;34.77
35694;BME280;21812;55.536;37.664;2023-07-31T11:37:48;99040.44;;;27.73;35.18
35694;BME280;21812;55.536;37.664;2023-07-31T11:40:14;99039.06;;;27.35;34.24
35694;BME280;21812;55.536;37.664;2023-07-31T11:42:40;99048.78;;;27.10;35.08
35694;BME280;21812;55.536;37.664;2023-07-31T11:45:07;99041.75;;;26.86;35.66
35694;BME280;21812;55.536;37.664;2023-07-31T11:47:35;99039.38;;;26.94;35.79
35694;BME280;21812;55.536;37.664;2023-07-31T11:50:05;99040.88;;;27.08;34.61
35694;BME280;21812;55.536;37.664;2023-07-31T11:52:37;99033.34;;;27.72;34.43
35694;BME280;21812;55.536;37.664;2023-07-31T11:55:07;99039.94;;;27.79;33.04
35694;BME280;21812;55.536;37.664;2023-07-31T11:57:37;99017.38;;;27.65;34.43
35694;BME280;21812;55.536;37.664;2023-07-31T12:00:04;99037.34;;;27.48;34.51
35694;BME280;21812;55.536;37.664;2023-07-31T12:02:31;99045.22;;;27.41;34.46
35694;BME280;21812;55.536;37.664;2023-07-31T12:04:57;99031.81;;;27.30;35.06
35694;BME280;21812;55.536;37.664;2023-07-31T12:07:24;99053.50;;;27.18;36.05
35694;BME280;21812;55.536;37.664;2023-07-31T12:09:53;99054.72;;;27.03;36.33
35694;BME280;21812;55.536;37.664;2023-07-31T12:12:21;99046.00;;;27.01;36.03
35694;BME280;21812;55.536;37.664;2023-07-31T12:14:48;99051.66;;;27.05;37.78
35694;BME280;21812;55.536;37.664;2023-07-31T12:17:14;99060.44;;;27.24;36.51
35694;BME280;21812;55.536;37.664;2023-07-31T12:19:40;99049.22;;;28.01;35.44
35694;BME280;21812;55.536;37.664;2023-07-31T12:22:13;99046.97;;;29.02;34.38
35694;BME280;21812;55.536;37.664;2023-07-31T12:24:42;99044.03;;;30.18;32.51
35694;BME280;21812;55.536;37.664;2023-07-31T12:27:11;99039.66;;;30.84;30.70
35694;BME280;21812;55.536;37.664;2023-07-31T12:29:38;99050.69;;;30.84;30.42
35694;BME280;21812;55.536;37.664;2023-07-31T12:32:04;99044.91;;;30.64;30.10
35694;BME280;21812;55.536;37.664;2023-07-31T12:34:29;99044.66;;;31.40;30.11
35694;BME280;21812;55.536;37.664;2023-07-31T12:36:55;99045.22;;;32.23;28.85
35694;BME280;21812;55.536;37.664;2023-07-31T12:39:21;99047.22;;;32.66;28.19
35694;BME280;21812;55.536;37.664;2023-07-31T12:41:47;99041.81;;;33.18;27.79
35694;BME280;21812;55.536;37.664;2023-07-31T12:44:12;99047.94;;;33.59;26.39
35694;BME280;21812;55.536;37.664;2023-07-31T12:46:38;99039.25;;;33.60;26.43
35694;BME280;21812;55.536;37.664;2023-07-31T12:49:04;99051.13;;;33.61;26.48
35694;BME280;21812;55.536;37.664;2023-07-31T12:51:30;99046.66;;;33.56;25.73
35694;BME280;21812;55.536;37.664;2023-07-31T12:53:55;99046.13;;;33.50;25.98
35694;BME280;21812;55.536;37.664;2023-07-31T12:56:21;99044.63;;;33.88;25.80
35694;BME280;21812;55.536;37.664;2023-07-31T12:58:47;99035.34;;;34.16;25.83
35694;BME280;21812;55.536;37.664;2023-07-31T13:01:12;99039.47;;;34.45;26.59
35694;BME280;21812;55.536;37.664;2023-07-31T13:03:38;99038.38;;;34.70;25.60
35694;BME280;21812;55.536;37.664;2023-07-31T13:06:04;99040.44;;;34.99;26.14
35694;BME280;21812;55.536;37.664;2023-07-31T13:08:31;99041.81;;;35.09;24.71